sensor_id;sensor_type;location;lat;lon;timestamp;P1;durP1;ratioP1;P2;durP2;ratioP2
6626;SDS011;3349;49.830;8.748;2023-05-21T00:00:22;25.20;;;18.83;;
6626;SDS011;3349;49.830;8.748;2023-05-21T00:02:49;27.20;;;18.92;;
6626;SDS011;3349;49.830;8.748;2023-05-21T00:05:16;27.00;;;20.10;;
6626;SDS011;3349;49.830;8.748;2023-05-21T00:07:45;22.55;;;17.88;;
6626;SDS011;3349;49.830;8.748;2023-05-21T00:10:12;26.83;;;19.35;;
6626;SDS011;3349;49.830;8.748;2023-05-21T00:12:40;21.15;;;18.30;;
6626;SDS011;3349;49.830;8.748;2023-05-21T00:15:07;25.20;;;19.35;;
6626;SDS011;3349;49.830;8.748;2023-05-21T00:17:34;23.83;;;18.58;;
6626;SDS011;3349;49.830;8.748;2023-05-21T00:20:01;21.52;;;18.67;;
6626;SDS011;3349;49.830;8.748;2023-05-21T00:22:31;21.63;;;18.95;;
6626;SDS011;3349;49.830;8.748;2023-05-21T00:24:57;22.30;;;18.70;;
6626;SDS011;3349;49.830;8.748;2023-05-21T00:27:24;22.38;;;18.33;;
6626;SDS011;3349;49.830;8.748;2023-05-21T00:29:52;22.20;;;18.30;;
6626;SDS011;3349;49.830;8.748;2023-05-21T00:32:19;23.48;;;18.35;;
6626;SDS011;3349;49.830;8.748;2023-05-21T00:34:47;28.38;;;19.27;;
6626;SDS011;3349;49.830;8.748;2023-05-21T00:37:14;22.90;;;18.58;;
6626;SDS011;3349;49.830;8.748;2023-05-21T00:39:40;26.63;;;18.73;;
6626;SDS011;3349;49.830;8.748;2023-05-21T00:42:07;25.52;;;19.38;;
6626;SDS011;3349;49.830;8.748;2023-05-21T00:44:34;23.83;;;18.30;;
6626;SDS011;3349;49.830;8.748;2023-05-21T00:47:02;22.90;;;18.40;;
6626;SDS011;3349;49.830;8.748;2023-05-21T00:49:30;23.80;;;19.05;;
6626;SDS011;3349;49.830;8.748;2023-05-21T00:51:57;24.17;;;18.73;;
6626;SDS011;3349;49.830;8.748;2023-05-21T00:54:25;22.23;;;18.35;;
6626;SDS011;3349;49.830;8.748;2023-05-21T00:56:55;24.58;;;18.83;;
6626;SDS011;3349;49.830;8.748;2023-05-21T00:59:25;23.35;;;18.25;;
6626;SDS011;3349;49.830;8.748;2023-05-21T01:01:51;22.85;;;18.23;;
6626;SDS011;3349;49.830;8.748;2023-05-21T01:04:22;23.02;;;18.33;;
6626;SDS011;3349;49.830;8.748;2023-05-21T01:06:49;20.67;;;16.95;;
6626;SDS011;3349;49.830;8.748;2023-05-21T01:09:17;22.70;;;18.73;;
6626;SDS011;3349;49.830;8.748;2023-05-21T01:11:45;19.95;;;17.50;;
6626;SDS011;3349;49.830;8.748;2023-05-21T01:14:15;21.70;;;17.70;;
6626;SDS011;3349;49.830;8.748;2023-05-21T01:16:44;22.25;;;18.85;;
6626;SDS011;3349;49.830;8.748;2023-05-21T01:19:14;21.88;;;17.48;;
6626;SDS011;3349;49.830;8.748;2023-05-21T01:21:46;24.98;;;19.00;;
6626;SDS011;3349;49.830;8.748;2023-05-21T01:24:18;24.40;;;19.00;;
6626;SDS011;3349;49.830;8.748;2023-05-21T01:26:44;23.63;;;18.63;;
6626;SDS011;3349;49.830;8.748;2023-05-21T01:29:11;26.92;;;18.33;;
6626;SDS011;3349;49.830;8.748;2023-05-21T01:31:44;21.88;;;18.30;;
6626;SDS011;3349;49.830;8.748;2023-05-21T01:34:21;24.08;;;18.30;;
6626;SDS011;3349;49.830;8.748;2023-05-21T01:37:06;21.45;;;18.90;;
6626;SDS011;3349;49.830;8.748;2023-05-21T01:39:38;22.70;;;18.38;;
6626;SDS011;3349;49.830;8.748;2023-05-21T01:42:09;22.02;;;17.77;;
6626;SDS011;3349;49.830;8.748;2023-05-21T01:44:36;23.48;;;18.63;;
6626;SDS011;3349;49.830;8.748;2023-05-21T01:47:04;26.15;;;18.67;;
6626;SDS011;3349;49.830;8.748;2023-05-21T01:49:31;21.80;;;18.27;;
6626;SDS011;3349;49.830;8.748;2023-05-21T01:51:58;24.02;;;18.15;;
6626;SDS011;3349;49.830;8.748;2023-05-21T01:54:26;23.27;;;18.20;;
6626;SDS011;3349;49.830;8.748;2023-05-21T01:56:55;24.23;;;18.77;;
6626;SDS011;3349;49.830;8.748;2023-05-21T01:59:21;23.50;;;18.42;;
6626;SDS011;3349;49.830;8.748;2023-05-21T02:01:48;21.00;;;18.45;;
6626;SDS011;3349;49.830;8.748;2023-05-21T02:04:15;25.20;;;19.00;;
6626;SDS011;3349;49.830;8.748;2023-05-21T02:06:41;20.05;;;17.88;;
6626;SDS011;3349;49.830;8.748;2023-05-21T02:09:08;23.48;;;18.55;;
6626;SDS011;3349;49.830;8.748;2023-05-21T02:11:35;23.35;;;17.83;;
6626;SDS011;3349;49.830;8.748;2023-05-21T02:14:03;22.02;;;18.73;;
6626;SDS011;3349;49.830;8.748;2023-05-21T02:16:31;21.83;;;18.15;;
6626;SDS011;3349;49.830;8.748;2023-05-21T02:18:58;21.77;;;18.52;;
6626;SDS011;3349;49.830;8.748;2023-05-21T02:21:25;25.33;;;18.35;;
6626;SDS011;3349;49.830;8.748;2023-05-21T02:23:52;21.98;;;17.48;;
6626;SDS011;3349;49.830;8.748;2023-05-21T02:26:18;24.17;;;18.25;;
6626;SDS011;3349;49.830;8.748;2023-05-21T02:28:46;21.58;;;18.95;;
6626;SDS011;3349;49.830;8.748;2023-05-21T02:31:14;22.27;;;17.52;;
6626;SDS011;3349;49.830;8.748;2023-05-21T02:33:41;22.55;;;18.98;;
6626;SDS011;3349;49.830;8.748;2023-05-21T02:36:08;22.83;;;18.63;;
6626;SDS011;3349;49.830;8.748;2023-05-21T02:38:37;22.30;;;17.73;;
6626;SDS011;3349;49.830;8.748;2023-05-21T02:41:04;22.90;;;17.70;;
6626;SDS011;3349;49.830;8.748;2023-05-21T02:43:31;21.90;;;17.95;;
6626;SDS011;3349;49.830;8.748;2023-05-21T02:45:57;23.42;;;18.92;;
6626;SDS011;3349;49.830;8.748;2023-05-21T02:48:25;24.05;;;17.45;;
6626;SDS011;3349;49.830;8.748;2023-05-21T02:50:52;22.92;;;18.33;;
6626;SDS011;3349;49.830;8.748;2023-05-21T02:53:19;23.92;;;18.08;;
6626;SDS011;3349;49.830;8.748;2023-05-21T02:55:46;20.27;;;17.63;;
6626;SDS011;3349;49.830;8.748;2023-05-21T02:58:12;21.15;;;17.85;;
6626;SDS011;3349;49.830;8.748;2023-05-21T03:00:39;23.90;;;18.58;;
6626;SDS011;3349;49.830;8.748;2023-05-21T03:03:06;21.80;;;18.08;;
6626;SDS011;3349;49.830;8.748;2023-05-21T03:05:34;21.92;;;17.60;;
6626;SDS011;3349;49.830;8.748;2023-05-21T03:08:01;21.20;;;17.67;;
6626;SDS011;3349;49.830;8.748;2023-05-21T03:10:27;20.83;;;17.73;;
6626;SDS011;3349;49.830;8.748;2023-05-21T03:12:54;22.75;;;18.27;;
6626;SDS011;3349;49.830;8.748;2023-05-21T03:15:21;24.75;;;18.13;;
6626;SDS011;3349;49.830;8.748;2023-05-21T03:17:48;22.45;;;17.35;;
6626;SDS011;3349;49.830;8.748;2023-05-21T03:20:15;23.83;;;18.83;;
6626;SDS011;3349;49.830;8.748;2023-05-21T03:22:44;21.90;;;18.52;;
6626;SDS011;3349;49.830;8.748;2023-05-21T03:25:15;21.85;;;17.65;;
6626;SDS011;3349;49.830;8.748;2023-05-21T03:27:42;25.05;;;18.80;;
6626;SDS011;3349;49.830;8.748;2023-05-21T03:30:09;22.75;;;18.48;;
6626;SDS011;3349;49.830;8.748;2023-05-21T03:32:37;24.92;;;19.10;;
6626;SDS011;3349;49.830;8.748;2023-05-21T03:35:05;24.30;;;19.58;;
6626;SDS011;3349;49.830;8.748;2023-05-21T03:37:32;22.95;;;18.42;;
6626;SDS011;3349;49.830;8.748;2023-05-21T03:40:01;21.92;;;18.10;;
6626;SDS011;3349;49.830;8.748;2023-05-21T03:42:28;22.48;;;18.45;;
6626;SDS011;3349;49.830;8.748;2023-05-21T03:44:55;25.63;;;19.02;;
6626;SDS011;3349;49.830;8.748;2023-05-21T03:47:21;22.30;;;18.38;;
6626;SDS011;3349;49.830;8.748;2023-05-21T03:49:48;24.98;;;19.33;;
6626;SDS011;3349;49.830;8.748;2023-05-21T03:52:15;23.73;;;19.35;;
6626;SDS011;3349;49.830;8.748;2023-05-21T03:54:42;20.25;;;17.42;;
6626;SDS011;3349;49.830;8.748;2023-05-21T03:57:10;25.25;;;19.50;;
6626;SDS011;3349;49.830;8.748;2023-05-21T03:59:36;24.33;;;19.02;;
6626;SDS011;3349;49.830;8.748;2023-05-21T04:02:03;22.92;;;18.52;;
6626;SDS011;3349;49.830;8.748;2023-05-21T04:04:30;23.90;;;19.30;;
6626;SDS011;3349;49.830;8.748;2023-05-21T04:06:57;24.50;;;18.23;;
6626;SDS011;3349;49.830;8.748;2023-05-21T04:09:24;21.98;;;18.40;;
6626;SDS011;3349;49.830;8.748;2023-05-21T04:11:51;25.27;;;18.70;;
6626;SDS011;3349;49.830;8.748;2023-05-21T04:14:19;20.60;;;18.40;;
6626;SDS011;3349;49.830;8.748;2023-05-21T04:16:47;22.67;;;18.63;;
6626;SDS011;3349;49.830;8.748;2023-05-21T04:19:14;23.38;;;19.23;;
6626;SDS011;3349;49.830;8.748;2023-05-21T04:21:40;24.05;;;18.83;;
6626;SDS011;3349;49.830;8.748;2023-05-21T04:24:09;22.80;;;18.23;;
6626;SDS011;3349;49.830;8.748;2023-05-21T04:26:35;24.65;;;18.50;;
6626;SDS011;3349;49.830;8.748;2023-05-21T04:29:05;24.23;;;18.98;;
6626;SDS011;3349;49.830;8.748;2023-05-21T04:31:35;24.02;;;19.55;;
6626;SDS011;3349;49.830;8.748;2023-05-21T04:34:02;23.55;;;18.88;;
6626;SDS011;3349;49.830;8.748;2023-05-21T04:36:29;22.40;;;18.63;;
6626;SDS011;3349;49.830;8.748;2023-05-21T04:38:55;23.92;;;19.15;;
6626;SDS011;3349;49.830;8.748;2023-05-21T04:41:22;25.80;;;17.90;;
6626;SDS011;3349;49.830;8.748;2023-05-21T04:43:49;20.50;;;17.63;;
6626;SDS011;3349;49.830;8.748;2023-05-21T04:46:19;25.90;;;18.33;;
6626;SDS011;3349;49.830;8.748;2023-05-21T04:48:50;21.38;;;18.25;;
6626;SDS011;3349;49.830;8.748;2023-05-21T04:51:18;24.13;;;17.95;;
6626;SDS011;3349;49.830;8.748;2023-05-21T04:53:46;24.05;;;18.42;;
6626;SDS011;3349;49.830;8.748;2023-05-21T04:56:13;23.05;;;18.20;;
6626;SDS011;3349;49.830;8.748;2023-05-21T04:58:42;20.67;;;17.90;;
6626;SDS011;3349;49.830;8.748;2023-05-21T05:01:09;23.63;;;18.92;;
6626;SDS011;3349;49.830;8.748;2023-05-21T05:03:36;22.67;;;18.50;;
6626;SDS011;3349;49.830;8.748;2023-05-21T05:06:04;22.90;;;18.05;;
6626;SDS011;3349;49.830;8.748;2023-05-21T05:08:32;26.42;;;18.42;;
6626;SDS011;3349;49.830;8.748;2023-05-21T05:10:59;22.98;;;18.40;;
6626;SDS011;3349;49.830;8.748;2023-05-21T05:13:25;23.75;;;18.95;;
6626;SDS011;3349;49.830;8.748;2023-05-21T05:15:52;27.88;;;21.30;;
6626;SDS011;3349;49.830;8.748;2023-05-21T05:18:19;29.60;;;21.83;;
6626;SDS011;3349;49.830;8.748;2023-05-21T05:20:45;27.02;;;19.48;;
6626;SDS011;3349;49.830;8.748;2023-05-21T05:23:13;21.38;;;18.67;;
6626;SDS011;3349;49.830;8.748;2023-05-21T05:25:40;22.85;;;18.30;;
6626;SDS011;3349;49.830;8.748;2023-05-21T05:28:07;26.73;;;18.33;;
6626;SDS011;3349;49.830;8.748;2023-05-21T05:30:34;23.35;;;18.67;;
6626;SDS011;3349;49.830;8.748;2023-05-21T05:33:01;20.02;;;17.40;;
6626;SDS011;3349;49.830;8.748;2023-05-21T05:35:28;21.25;;;18.80;;
6626;SDS011;3349;49.830;8.748;2023-05-21T05:37:55;23.23;;;18.00;;
6626;SDS011;3349;49.830;8.748;2023-05-21T05:40:23;26.88;;;19.48;;
6626;SDS011;3349;49.830;8.748;2023-05-21T05:42:49;23.77;;;19.30;;
6626;SDS011;3349;49.830;8.748;2023-05-21T05:45:17;22.83;;;17.48;;
6626;SDS011;3349;49.830;8.748;2023-05-21T05:47:45;21.80;;;18.25;;
6626;SDS011;3349;49.830;8.748;2023-05-21T05:50:12;22.75;;;17.75;;
6626;SDS011;3349;49.830;8.748;2023-05-21T05:52:38;19.83;;;17.52;;
6626;SDS011;3349;49.830;8.748;2023-05-21T05:55:05;22.33;;;16.63;;
6626;SDS011;3349;49.830;8.748;2023-05-21T05:57:34;21.52;;;16.70;;
6626;SDS011;3349;49.830;8.748;2023-05-21T06:00:01;22.38;;;17.90;;
6626;SDS011;3349;49.830;8.748;2023-05-21T06:02:29;20.50;;;17.45;;
6626;SDS011;3349;49.830;8.748;2023-05-21T06:04:55;19.55;;;17.45;;
6626;SDS011;3349;49.830;8.748;2023-05-21T06:07:22;19.67;;;17.17;;
6626;SDS011;3349;49.830;8.748;2023-05-21T06:09:49;20.73;;;16.88;;
6626;SDS011;3349;49.830;8.748;2023-05-21T06:12:15;20.77;;;17.13;;
6626;SDS011;3349;49.830;8.748;2023-05-21T06:14:43;20.25;;;17.83;;
6626;SDS011;3349;49.830;8.748;2023-05-21T06:17:13;22.23;;;17.88;;
6626;SDS011;3349;49.830;8.748;2023-05-21T06:19:40;22.55;;;18.58;;
6626;SDS011;3349;49.830;8.748;2023-05-21T06:22:06;20.13;;;17.90;;
6626;SDS011;3349;49.830;8.748;2023-05-21T06:24:33;18.90;;;16.75;;
6626;SDS011;3349;49.830;8.748;2023-05-21T06:27:00;16.98;;;15.02;;
6626;SDS011;3349;49.830;8.748;2023-05-21T06:29:27;18.15;;;16.25;;
6626;SDS011;3349;49.830;8.748;2023-05-21T06:31:56;19.55;;;16.40;;
6626;SDS011;3349;49.830;8.748;2023-05-21T06:34:23;18.25;;;16.23;;
6626;SDS011;3349;49.830;8.748;2023-05-21T06:36:49;17.33;;;15.38;;
6626;SDS011;3349;49.830;8.748;2023-05-21T06:39:16;19.25;;;16.85;;
6626;SDS011;3349;49.830;8.748;2023-05-21T06:41:43;18.05;;;16.13;;
6626;SDS011;3349;49.830;8.748;2023-05-21T06:44:10;18.33;;;15.68;;
6626;SDS011;3349;49.830;8.748;2023-05-21T06:46:37;18.95;;;16.30;;
6626;SDS011;3349;49.830;8.748;2023-05-21T06:49:05;18.95;;;16.27;;
6626;SDS011;3349;49.830;8.748;2023-05-21T06:51:32;19.77;;;16.17;;
6626;SDS011;3349;49.830;8.748;2023-05-21T06:53:58;19.15;;;15.65;;
6626;SDS011;3349;49.830;8.748;2023-05-21T06:56:25;16.65;;;14.93;;
6626;SDS011;3349;49.830;8.748;2023-05-21T06:58:52;17.98;;;15.95;;
6626;SDS011;3349;49.830;8.748;2023-05-21T07:01:19;18.90;;;15.93;;
6626;SDS011;3349;49.830;8.748;2023-05-21T07:03:47;17.25;;;15.45;;
6626;SDS011;3349;49.830;8.748;2023-05-21T07:06:15;20.20;;;16.83;;
6626;SDS011;3349;49.830;8.748;2023-05-21T07:08:42;17.38;;;15.63;;
6626;SDS011;3349;49.830;8.748;2023-05-21T07:11:08;17.75;;;15.68;;
6626;SDS011;3349;49.830;8.748;2023-05-21T07:13:35;17.77;;;15.98;;
6626;SDS011;3349;49.830;8.748;2023-05-21T07:16:02;19.63;;;17.10;;
6626;SDS011;3349;49.830;8.748;2023-05-21T07:18:29;18.70;;;16.80;;
6626;SDS011;3349;49.830;8.748;2023-05-21T07:20:56;18.10;;;16.30;;
6626;SDS011;3349;49.830;8.748;2023-05-21T07:23:24;18.90;;;15.23;;
6626;SDS011;3349;49.830;8.748;2023-05-21T07:25:51;17.95;;;15.90;;
6626;SDS011;3349;49.830;8.748;2023-05-21T07:28:18;17.73;;;15.65;;
6626;SDS011;3349;49.830;8.748;2023-05-21T07:30:45;18.20;;;15.57;;
6626;SDS011;3349;49.830;8.748;2023-05-21T07:33:12;21.48;;;15.85;;
6626;SDS011;3349;49.830;8.748;2023-05-21T07:35:39;17.85;;;15.95;;
6626;SDS011;3349;49.830;8.748;2023-05-21T07:38:11;20.20;;;15.77;;
6626;SDS011;3349;49.830;8.748;2023-05-21T07:40:39;17.55;;;15.77;;
6626;SDS011;3349;49.830;8.748;2023-05-21T07:43:06;18.60;;;15.20;;
6626;SDS011;3349;49.830;8.748;2023-05-21T07:45:33;20.08;;;14.98;;
6626;SDS011;3349;49.830;8.748;2023-05-21T07:47:59;17.35;;;15.52;;
6626;SDS011;3349;49.830;8.748;2023-05-21T07:50:26;16.83;;;14.68;;
6626;SDS011;3349;49.830;8.748;2023-05-21T07:52:53;18.90;;;15.07;;
6626;SDS011;3349;49.830;8.748;2023-05-21T07:55:20;17.17;;;15.45;;
6626;SDS011;3349;49.830;8.748;2023-05-21T07:57:48;16.40;;;14.70;;
6626;SDS011;3349;49.830;8.748;2023-05-21T08:00:16;15.60;;;14.00;;
6626;SDS011;3349;49.830;8.748;2023-05-21T08:02:43;15.52;;;14.02;;
6626;SDS011;3349;49.830;8.748;2023-05-21T08:05:10;16.00;;;14.48;;
6626;SDS011;3349;49.830;8.748;2023-05-21T08:07:37;15.60;;;14.02;;
6626;SDS011;3349;49.830;8.748;2023-05-21T08:10:04;17.35;;;15.65;;
6626;SDS011;3349;49.830;8.748;2023-05-21T08:12:33;15.70;;;14.10;;
6626;SDS011;3349;49.830;8.748;2023-05-21T08:15:01;16.70;;;14.95;;
6626;SDS011;3349;49.830;8.748;2023-05-21T08:17:28;16.42;;;14.60;;
6626;SDS011;3349;49.830;8.748;2023-05-21T08:19:55;16.90;;;15.13;;
6626;SDS011;3349;49.830;8.748;2023-05-21T08:22:22;15.45;;;13.95;;
6626;SDS011;3349;49.830;8.748;2023-05-21T08:24:49;15.73;;;14.13;;
6626;SDS011;3349;49.830;8.748;2023-05-21T08:27:19;16.23;;;14.65;;
6626;SDS011;3349;49.830;8.748;2023-05-21T08:29:46;15.38;;;13.98;;
6626;SDS011;3349;49.830;8.748;2023-05-21T08:32:14;16.25;;;14.75;;
6626;SDS011;3349;49.830;8.748;2023-05-21T08:34:41;16.08;;;14.45;;
6626;SDS011;3349;49.830;8.748;2023-05-21T08:37:07;15.82;;;14.25;;
6626;SDS011;3349;49.830;8.748;2023-05-21T08:39:34;15.68;;;14.20;;
6626;SDS011;3349;49.830;8.748;2023-05-21T08:42:03;15.90;;;13.40;;
6626;SDS011;3349;49.830;8.748;2023-05-21T08:44:36;14.45;;;13.15;;
6626;SDS011;3349;49.830;8.748;2023-05-21T08:47:10;14.70;;;13.30;;
6626;SDS011;3349;49.830;8.748;2023-05-21T08:49:41;12.98;;;11.88;;
6626;SDS011;3349;49.830;8.748;2023-05-21T08:52:09;13.40;;;12.30;;
6626;SDS011;3349;49.830;8.748;2023-05-21T08:54:37;12.63;;;11.52;;
6626;SDS011;3349;49.830;8.748;2023-05-21T08:57:04;12.85;;;11.63;;
6626;SDS011;3349;49.830;8.748;2023-05-21T08:59:32;12.90;;;11.80;;
6626;SDS011;3349;49.830;8.748;2023-05-21T09:02:01;13.20;;;12.13;;
6626;SDS011;3349;49.830;8.748;2023-05-21T09:04:31;12.32;;;11.07;;
6626;SDS011;3349;49.830;8.748;2023-05-21T09:07:00;12.52;;;11.52;;
6626;SDS011;3349;49.830;8.748;2023-05-21T09:09:29;12.43;;;11.43;;
6626;SDS011;3349;49.830;8.748;2023-05-21T09:11:58;12.88;;;11.88;;
6626;SDS011;3349;49.830;8.748;2023-05-21T09:14:26;12.32;;;11.18;;
6626;SDS011;3349;49.830;8.748;2023-05-21T09:16:54;12.07;;;10.88;;
6626;SDS011;3349;49.830;8.748;2023-05-21T09:19:21;12.25;;;11.25;;
6626;SDS011;3349;49.830;8.748;2023-05-21T09:21:51;12.57;;;11.35;;
6626;SDS011;3349;49.830;8.748;2023-05-21T09:24:19;13.15;;;11.82;;
6626;SDS011;3349;49.830;8.748;2023-05-21T09:26:48;12.27;;;11.27;;
6626;SDS011;3349;49.830;8.748;2023-05-21T09:29:15;12.45;;;11.35;;
6626;SDS011;3349;49.830;8.748;2023-05-21T09:31:42;12.68;;;11.55;;
6626;SDS011;3349;49.830;8.748;2023-05-21T09:34:09;12.88;;;11.68;;
6626;SDS011;3349;49.830;8.748;2023-05-21T09:36:37;11.90;;;10.77;;
6626;SDS011;3349;49.830;8.748;2023-05-21T09:39:05;12.57;;;11.25;;
6626;SDS011;3349;49.830;8.748;2023-05-21T09:41:33;12.57;;;11.48;;
6626;SDS011;3349;49.830;8.748;2023-05-21T09:44:00;12.63;;;11.52;;
6626;SDS011;3349;49.830;8.748;2023-05-21T09:46:35;12.40;;;11.30;;
6626;SDS011;3349;49.830;8.748;2023-05-21T09:49:03;12.20;;;11.00;;
6626;SDS011;3349;49.830;8.748;2023-05-21T09:51:29;12.50;;;11.30;;
6626;SDS011;3349;49.830;8.748;2023-05-21T09:53:57;13.43;;;11.40;;
6626;SDS011;3349;49.830;8.748;2023-05-21T09:56:25;12.55;;;11.35;;
6626;SDS011;3349;49.830;8.748;2023-05-21T09:58:57;13.57;;;11.60;;
6626;SDS011;3349;49.830;8.748;2023-05-21T10:01:26;12.35;;;11.25;;
6626;SDS011;3349;49.830;8.748;2023-05-21T10:03:53;12.65;;;11.45;;
6626;SDS011;3349;49.830;8.748;2023-05-21T10:06:22;12.43;;;11.32;;
6626;SDS011;3349;49.830;8.748;2023-05-21T10:08:52;12.45;;;11.35;;
6626;SDS011;3349;49.830;8.748;2023-05-21T10:11:21;12.70;;;11.60;;
6626;SDS011;3349;49.830;8.748;2023-05-21T10:13:54;12.77;;;11.57;;
6626;SDS011;3349;49.830;8.748;2023-05-21T10:16:22;12.15;;;11.02;;
6626;SDS011;3349;49.830;8.748;2023-05-21T10:18:49;12.27;;;11.05;;
6626;SDS011;3349;49.830;8.748;2023-05-21T10:21:18;12.07;;;10.98;;
6626;SDS011;3349;49.830;8.748;2023-05-21T10:23:46;13.20;;;12.00;;
6626;SDS011;3349;49.830;8.748;2023-05-21T10:26:14;13.23;;;11.50;;
6626;SDS011;3349;49.830;8.748;2023-05-21T10:28:42;12.63;;;11.52;;
6626;SDS011;3349;49.830;8.748;2023-05-21T10:31:11;12.32;;;11.23;;
6626;SDS011;3349;49.830;8.748;2023-05-21T10:33:38;12.50;;;11.40;;
6626;SDS011;3349;49.830;8.748;2023-05-21T10:36:06;12.85;;;11.55;;
6626;SDS011;3349;49.830;8.748;2023-05-21T10:38:34;12.45;;;11.25;;
6626;SDS011;3349;49.830;8.748;2023-05-21T10:41:02;12.38;;;11.27;;
6626;SDS011;3349;49.830;8.748;2023-05-21T10:43:43;13.43;;;12.00;;
6626;SDS011;3349;49.830;8.748;2023-05-21T10:46:20;12.55;;;11.32;;
6626;SDS011;3349;49.830;8.748;2023-05-21T10:49:11;12.27;;;11.18;;
6626;SDS011;3349;49.830;8.748;2023-05-21T10:52:03;12.80;;;11.70;;
6626;SDS011;3349;49.830;8.748;2023-05-21T10:54:50;12.73;;;11.63;;
6626;SDS011;3349;49.830;8.748;2023-05-21T10:57:43;12.75;;;11.75;;
6626;SDS011;3349;49.830;8.748;2023-05-21T11:00:21;12.00;;;10.95;;
6626;SDS011;3349;49.830;8.748;2023-05-21T11:02:52;12.50;;;11.38;;
6626;SDS011;3349;49.830;8.748;2023-05-21T11:05:33;12.50;;;11.40;;
6626;SDS011;3349;49.830;8.748;2023-05-21T11:08:04;12.38;;;11.27;;
6626;SDS011;3349;49.830;8.748;2023-05-21T11:10:43;11.70;;;10.80;;
6626;SDS011;3349;49.830;8.748;2023-05-21T11:13:17;12.18;;;11.18;;
6626;SDS011;3349;49.830;8.748;2023-05-21T11:19:00;11.95;;;10.90;;
6626;SDS011;3349;49.830;8.748;2023-05-21T11:21:28;11.50;;;10.60;;
6626;SDS011;3349;49.830;8.748;2023-05-21T11:23:56;11.93;;;11.02;;
6626;SDS011;3349;49.830;8.748;2023-05-21T11:26:28;11.80;;;10.80;;
6626;SDS011;3349;49.830;8.748;2023-05-21T11:29:05;11.88;;;10.85;;
6626;SDS011;3349;49.830;8.748;2023-05-21T11:31:33;11.35;;;10.45;;
6626;SDS011;3349;49.830;8.748;2023-05-21T11:34:13;11.50;;;10.60;;
6626;SDS011;3349;49.830;8.748;2023-05-21T11:36:43;12.00;;;11.02;;
6626;SDS011;3349;49.830;8.748;2023-05-21T11:39:12;12.15;;;11.15;;
6626;SDS011;3349;49.830;8.748;2023-05-21T11:41:51;12.32;;;11.23;;
6626;SDS011;3349;49.830;8.748;2023-05-21T11:44:20;12.65;;;11.38;;
6626;SDS011;3349;49.830;8.748;2023-05-21T11:47:03;12.32;;;11.32;;
6626;SDS011;3349;49.830;8.748;2023-05-21T11:49:31;11.60;;;10.65;;
6626;SDS011;3349;49.830;8.748;2023-05-21T11:51:59;11.32;;;10.35;;
6626;SDS011;3349;49.830;8.748;2023-05-21T11:54:26;12.68;;;11.68;;
6626;SDS011;3349;49.830;8.748;2023-05-21T11:56:53;12.15;;;10.85;;
6626;SDS011;3349;49.830;8.748;2023-05-21T11:59:20;11.50;;;10.57;;
6626;SDS011;3349;49.830;8.748;2023-05-21T12:01:47;11.70;;;10.75;;
6626;SDS011;3349;49.830;8.748;2023-05-21T12:04:14;12.07;;;11.13;;
6626;SDS011;3349;49.830;8.748;2023-05-21T12:06:42;10.60;;;9.70;;
6626;SDS011;3349;49.830;8.748;2023-05-21T12:09:09;11.07;;;10.18;;
6626;SDS011;3349;49.830;8.748;2023-05-21T12:11:37;10.82;;;9.93;;
6626;SDS011;3349;49.830;8.748;2023-05-21T12:14:05;10.55;;;9.65;;
6626;SDS011;3349;49.830;8.748;2023-05-21T12:16:34;10.40;;;9.55;;
6626;SDS011;3349;49.830;8.748;2023-05-21T12:19:02;10.70;;;9.75;;
6626;SDS011;3349;49.830;8.748;2023-05-21T12:21:30;11.23;;;10.32;;
6626;SDS011;3349;49.830;8.748;2023-05-21T12:23:58;11.25;;;10.15;;
6626;SDS011;3349;49.830;8.748;2023-05-21T12:26:25;10.95;;;10.02;;
6626;SDS011;3349;49.830;8.748;2023-05-21T12:28:53;11.07;;;10.02;;
6626;SDS011;3349;49.830;8.748;2023-05-21T12:31:20;10.60;;;9.77;;
6626;SDS011;3349;49.830;8.748;2023-05-21T12:33:48;11.70;;;10.70;;
6626;SDS011;3349;49.830;8.748;2023-05-21T12:36:24;10.85;;;10.05;;
6626;SDS011;3349;49.830;8.748;2023-05-21T12:38:52;11.20;;;10.30;;
6626;SDS011;3349;49.830;8.748;2023-05-21T12:41:20;12.13;;;11.13;;
6626;SDS011;3349;49.830;8.748;2023-05-21T12:43:47;11.73;;;10.68;;
6626;SDS011;3349;49.830;8.748;2023-05-21T12:46:15;11.77;;;10.88;;
6626;SDS011;3349;49.830;8.748;2023-05-21T12:48:47;11.80;;;10.52;;
6626;SDS011;3349;49.830;8.748;2023-05-21T12:51:15;11.43;;;10.43;;
6626;SDS011;3349;49.830;8.748;2023-05-21T12:53:42;11.73;;;10.70;;
6626;SDS011;3349;49.830;8.748;2023-05-21T12:56:09;11.05;;;10.02;;
6626;SDS011;3349;49.830;8.748;2023-05-21T12:58:37;10.93;;;10.02;;
6626;SDS011;3349;49.830;8.748;2023-05-21T13:01:05;11.32;;;10.35;;
6626;SDS011;3349;49.830;8.748;2023-05-21T13:03:32;11.98;;;10.98;;
6626;SDS011;3349;49.830;8.748;2023-05-21T13:06:00;10.90;;;9.88;;
6626;SDS011;3349;49.830;8.748;2023-05-21T13:08:27;11.35;;;10.40;;
6626;SDS011;3349;49.830;8.748;2023-05-21T13:10:54;11.20;;;10.30;;
6626;SDS011;3349;49.830;8.748;2023-05-21T13:13:20;11.65;;;10.65;;
6626;SDS011;3349;49.830;8.748;2023-05-21T13:15:49;10.68;;;9.75;;
6626;SDS011;3349;49.830;8.748;2023-05-21T13:18:16;11.68;;;10.70;;
6626;SDS011;3349;49.830;8.748;2023-05-21T13:20:44;10.88;;;9.90;;
6626;SDS011;3349;49.830;8.748;2023-05-21T13:23:11;13.32;;;10.75;;
6626;SDS011;3349;49.830;8.748;2023-05-21T13:25:39;11.15;;;10.15;;
6626;SDS011;3349;49.830;8.748;2023-05-21T13:28:06;11.15;;;10.15;;
6626;SDS011;3349;49.830;8.748;2023-05-21T13:30:34;13.15;;;10.05;;
6626;SDS011;3349;49.830;8.748;2023-05-21T13:33:04;10.45;;;9.45;;
6626;SDS011;3349;49.830;8.748;2023-05-21T13:35:31;10.35;;;9.45;;
6626;SDS011;3349;49.830;8.748;2023-05-21T13:37:58;10.52;;;9.60;;
6626;SDS011;3349;49.830;8.748;2023-05-21T13:40:25;10.05;;;9.15;;
6626;SDS011;3349;49.830;8.748;2023-05-21T13:42:53;9.65;;;8.85;;
6626;SDS011;3349;49.830;8.748;2023-05-21T13:45:19;9.43;;;8.63;;
6626;SDS011;3349;49.830;8.748;2023-05-21T13:47:49;10.63;;;9.60;;
6626;SDS011;3349;49.830;8.748;2023-05-21T13:50:17;9.68;;;8.82;;
6626;SDS011;3349;49.830;8.748;2023-05-21T13:52:44;9.95;;;9.05;;
6626;SDS011;3349;49.830;8.748;2023-05-21T13:55:11;9.80;;;9.00;;
6626;SDS011;3349;49.830;8.748;2023-05-21T13:57:40;9.65;;;8.75;;
6626;SDS011;3349;49.830;8.748;2023-05-21T14:00:07;9.40;;;8.50;;
6626;SDS011;3349;49.830;8.748;2023-05-21T14:02:38;9.82;;;8.93;;
6626;SDS011;3349;49.830;8.748;2023-05-21T14:05:06;10.15;;;9.02;;
6626;SDS011;3349;49.830;8.748;2023-05-21T14:07:35;10.10;;;9.20;;
6626;SDS011;3349;49.830;8.748;2023-05-21T14:10:04;11.30;;;9.48;;
6626;SDS011;3349;49.830;8.748;2023-05-21T14:12:35;10.02;;;9.13;;
6626;SDS011;3349;49.830;8.748;2023-05-21T14:15:02;10.40;;;9.30;;
6626;SDS011;3349;49.830;8.748;2023-05-21T14:17:30;10.93;;;9.90;;
6626;SDS011;3349;49.830;8.748;2023-05-21T14:19:57;11.00;;;9.15;;
6626;SDS011;3349;49.830;8.748;2023-05-21T14:22:25;10.15;;;9.05;;
6626;SDS011;3349;49.830;8.748;2023-05-21T14:24:54;9.93;;;9.10;;
6626;SDS011;3349;49.830;8.748;2023-05-21T14:27:20;11.23;;;9.80;;
6626;SDS011;3349;49.830;8.748;2023-05-21T14:29:47;10.32;;;9.43;;
6626;SDS011;3349;49.830;8.748;2023-05-21T14:32:14;10.07;;;9.07;;
6626;SDS011;3349;49.830;8.748;2023-05-21T14:34:43;10.43;;;9.43;;
6626;SDS011;3349;49.830;8.748;2023-05-21T14:37:09;10.77;;;8.90;;
6626;SDS011;3349;49.830;8.748;2023-05-21T14:39:36;9.68;;;8.77;;
6626;SDS011;3349;49.830;8.748;2023-05-21T14:42:05;10.10;;;9.20;;
6626;SDS011;3349;49.830;8.748;2023-05-21T14:44:32;10.75;;;9.85;;
6626;SDS011;3349;49.830;8.748;2023-05-21T14:46:59;10.18;;;9.30;;
6626;SDS011;3349;49.830;8.748;2023-05-21T14:49:25;10.32;;;9.43;;
6626;SDS011;3349;49.830;8.748;2023-05-21T14:51:52;9.57;;;8.77;;
6626;SDS011;3349;49.830;8.748;2023-05-21T14:54:19;10.07;;;9.15;;
6626;SDS011;3349;49.830;8.748;2023-05-21T14:56:47;10.43;;;9.43;;
6626;SDS011;3349;49.830;8.748;2023-05-21T14:59:15;10.95;;;9.95;;